Time;durP1;ratioP1;P1;durP2;ratioP2;P2;SDS_P1;SDS_P2;PMS_P1;PMS_P2;Temp;Humidity;BMP_temperature;BMP_pressure;BME280_temperature;BME280_humidity;BME280_pressure;Samples;Min_cycle;Max_cycle;Signal;HPM_P1;HPM_P2
2022/08/01 00:00:23;;;;;;;1.63;1.53;;;25.20;71.70;;;;;;5052097;28;20670;-70
2022/08/01 00:02:48;;;;;;;1.40;1.30;;;25.10;71.60;;;;;;5052363;28;20754;-70
2022/08/01 00:05:14;;;;;;;1.40;1.30;;;25.10;71.90;;;;;;5052947;28;20219;-70
2022/08/01 00:07:40;;;;;;;4.00;1.50;;;25.10;71.80;;;;;;5055395;28;20241;-70
2022/08/01 00:10:10;;;;;;;1.53;1.43;;;25.10;71.70;;;;;;5074064;28;20280;-70
2022/08/01 00:12:37;;;;;;;2.13;1.40;;;25.20;71.50;;;;;;5067659;28;20453;-70
2022/08/01 00:15:05;;;;;;;1.30;1.20;;;25.20;71.50;;;;;;5053513;28;20854;-69
2022/08/01 00:17:31;;;;;;;1.50;1.40;;;25.20;71.40;;;;;;5051968;28;20874;-70
2022/08/01 00:19:57;;;;;;;1.37;1.27;;;25.10;71.40;;;;;;5048687;28;20497;-70
2022/08/01 00:22:22;;;;;;;1.50;1.40;;;25.20;71.20;;;;;;5052230;28;21147;-70
2022/08/01 00:24:48;;;;;;;2.07;1.70;;;25.20;71.10;;;;;;5069442;28;20258;-70
2022/08/01 00:27:14;;;;;;;1.50;1.23;;;25.10;70.90;;;;;;5072762;28;20301;-70
2022/08/01 00:29:40;;;;;;;1.30;1.20;;;25.20;70.90;;;;;;5034391;28;20597;-70
2022/08/01 00:32:06;;;;;;;1.30;1.17;;;25.10;71.00;;;;;;5044367;28;20207;-70
2022/08/01 00:34:31;;;;;;;1.60;1.50;;;25.10;70.90;;;;;;5068302;28;20214;-70
2022/08/01 00:36:57;;;;;;;1.30;1.23;;;25.10;70.80;;;;;;5038117;28;20214;-70
2022/08/01 00:39:23;;;;;;;2.53;1.50;;;25.10;70.80;;;;;;5052031;28;20238;-70
2022/08/01 00:41:48;;;;;;;1.60;1.40;;;25.10;70.90;;;;;;5034886;28;20268;-71
2022/08/01 00:44:14;;;;;;;1.53;1.43;;;25.10;70.60;;;;;;5028511;28;20714;-70
2022/08/01 00:46:41;;;;;;;1.13;1.10;;;25.10;71.00;;;;;;5035358;28;20241;-70
2022/08/01 00:49:07;;;;;;;3.03;1.80;;;25.10;70.60;;;;;;5051705;28;20237;-71
2022/08/01 00:51:33;;;;;;;1.63;1.53;;;25.10;70.60;;;;;;5034407;28;20449;-70
2022/08/01 00:54:00;;;;;;;1.30;1.20;;;25.00;70.80;;;;;;5027479;28;20289;-70
2022/08/01 00:56:27;;;;;;;1.37;1.27;;;25.00;71.00;;;;;;5033794;28;20266;-70
2022/08/01 00:58:54;;;;;;;1.40;1.30;;;25.00;71.10;;;;;;5044359;28;20757;-70
2022/08/01 01:01:21;;;;;;;1.60;1.50;;;25.00;70.80;;;;;;5036238;28;20445;-70
2022/08/01 01:03:51;;;;;;;1.83;1.20;;;25.00;70.80;;;;;;5048459;28;20477;-70
2022/08/01 01:06:31;;;;;;;1.80;1.70;;;24.90;70.90;;;;;;5052153;28;20485;-71
2022/08/01 01:09:16;;;;;;;1.57;1.47;;;24.90;70.90;;;;;;5035675;28;20466;-70
2022/08/01 01:11:57;;;;;;;1.47;1.40;;;24.90;71.10;;;;;;5044580;28;20544;-70
2022/08/01 01:14:34;;;;;;;1.20;1.20;;;24.80;71.50;;;;;;5050223;28;20461;-71
2022/08/01 01:17:06;;;;;;;1.53;1.43;;;24.80;71.50;;;;;;5067057;28;20460;-70
2022/08/01 01:19:37;;;;;;;1.23;1.13;;;24.70;71.70;;;;;;5038032;28;20548;-70
2022/08/01 01:22:24;;;;;;;1.50;1.40;;;24.70;71.80;;;;;;5055746;28;20453;-70
2022/08/01 01:25:24;;;;;;;1.67;1.57;;;24.70;71.80;;;;;;5052043;28;20528;-70
2022/08/01 01:28:04;;;;;;;1.53;1.40;;;24.60;72.70;;;;;;5039139;28;20876;-70
2022/08/01 01:30:32;;;;;;;1.37;1.27;;;24.50;73.00;;;;;;5068299;28;20476;-70
2022/08/01 01:33:05;;;;;;;2.53;1.40;;;24.50;73.30;;;;;;5051118;28;20530;-70
2022/08/01 01:35:35;;;;;;;1.10;1.00;;;24.40;73.40;;;;;;5033795;28;20453;-70
2022/08/01 01:38:27;;;;;;;1.63;1.53;;;24.40;73.50;;;;;;5074064;28;20461;-70
2022/08/01 01:40:55;;;;;;;1.50;1.40;;;24.30;73.60;;;;;;5063327;28;20511;-69
2022/08/01 01:43:22;;;;;;;1.37;1.27;;;24.20;73.80;;;;;;5054918;28;20515;-70
2022/08/01 01:45:50;;;;;;;1.53;1.43;;;24.20;74.50;;;;;;5034472;28;20445;-70
2022/08/01 01:48:18;;;;;;;1.10;1.10;;;24.20;73.90;;;;;;5067843;28;20445;-69
2022/08/01 01:50:46;;;;;;;1.73;1.63;;;24.20;74.40;;;;;;5030769;28;21092;-71
2022/08/01 01:53:15;;;;;;;1.43;1.20;;;24.20;74.00;;;;;;5065076;28;20472;-70
2022/08/01 01:55:44;;;;;;;1.43;1.33;;;24.20;73.80;;;;;;5053056;28;20536;-70
2022/08/01 01:58:13;;;;;;;1.37;1.27;;;24.20;73.60;;;;;;5052172;28;20433;-70
2022/08/01 02:00:42;;;;;;;1.60;1.50;;;24.20;73.60;;;;;;5042896;28;20540;-69
2022/08/01 02:03:11;;;;;;;1.43;1.33;;;24.20;73.70;;;;;;5043674;28;20442;-71
2022/08/01 02:05:39;;;;;;;1.70;1.60;;;24.20;73.80;;;;;;5042437;28;20506;-70
2022/08/01 02:08:07;;;;;;;1.47;1.30;;;24.10;73.70;;;;;;5051320;28;20436;-70
2022/08/01 02:10:34;;;;;;;1.60;1.50;;;24.10;74.00;;;;;;5030613;28;20816;-70
2022/08/01 02:13:03;;;;;;;1.27;1.10;;;24.00;74.50;;;;;;5082516;28;20480;-70
2022/08/01 02:15:32;;;;;;;1.40;1.30;;;23.90;74.50;;;;;;5037296;28;20989;-70
2022/08/01 02:17:59;;;;;;;1.70;1.60;;;23.90;74.40;;;;;;5061660;28;20469;-69
2022/08/01 02:20:28;;;;;;;1.30;1.20;;;23.90;74.80;;;;;;5063581;28;20465;-70
2022/08/01 02:23:04;;;;;;;1.60;1.50;;;23.80;75.00;;;;;;5065287;28;20539;-67
2022/08/01 02:25:40;;;;;;;1.40;1.30;;;23.80;75.00;;;;;;5046604;28;20463;-70
2022/08/01 02:28:10;;;;;;;3.17;1.43;;;23.80;74.90;;;;;;5041913;28;20537;-69
2022/08/01 02:30:39;;;;;;;1.50;1.40;;;23.80;74.40;;;;;;5033855;28;20867;-70
2022/08/01 02:33:20;;;;;;;1.60;1.50;;;23.80;74.40;;;;;;5062827;28;20683;-70
2022/08/01 02:35:56;;;;;;;1.70;1.60;;;23.80;74.50;;;;;;5057288;28;20507;-70
2022/08/01 02:38:25;;;;;;;2.50;1.23;;;23.80;75.00;;;;;;5068505;28;20824;-70
2022/08/01 02:40:54;;;;;;;1.40;1.30;;;23.70;75.20;;;;;;5050901;28;20532;-70
2022/08/01 02:43:22;;;;;;;1.87;1.63;;;23.70;75.30;;;;;;5036701;28;20448;-70
2022/08/01 02:45:53;;;;;;;1.17;1.07;;;23.60;75.60;;;;;;5048942;28;20445;-70
2022/08/01 02:48:21;;;;;;;1.63;1.53;;;23.60;75.80;;;;;;5051024;28;20449;-70
2022/08/01 02:50:49;;;;;;;1.47;1.37;;;23.60;75.60;;;;;;5051262;28;20464;-70
2022/08/01 02:53:18;;;;;;;2.27;1.43;;;23.60;75.60;;;;;;5066461;28;20790;-70
2022/08/01 02:55:47;;;;;;;1.60;1.50;;;23.60;75.50;;;;;;5050488;28;20465;-70
2022/08/01 02:58:15;;;;;;;1.50;1.40;;;23.60;75.60;;;;;;5048975;28;20456;-70
2022/08/01 03:00:43;;;;;;;1.83;1.73;;;23.60;75.50;;;;;;5068664;28;20588;-70
2022/08/01 03:03:10;;;;;;;1.50;1.40;;;23.50;75.40;;;;;;5060353;28;20470;-70
2022/08/01 03:05:39;;;;;;;1.60;1.50;;;23.50;75.90;;;;;;5045952;28;20455;-70
2022/08/01 03:08:06;;;;;;;2.13;1.93;;;23.50;75.80;;;;;;5073586;28;20445;-69
2022/08/01 03:10:33;;;;;;;1.93;1.73;;;23.40;75.90;;;;;;5037158;28;20446;-71
2022/08/01 03:13:01;;;;;;;1.57;1.47;;;23.30;75.90;;;;;;5053907;28;20467;-71
2022/08/01 03:15:30;;;;;;;1.83;1.73;;;23.30;76.50;;;;;;5053015;28;20956;-70
2022/08/01 03:17:59;;;;;;;1.70;1.60;;;23.30;76.50;;;;;;5066029;28;20946;-70
2022/08/01 03:20:28;;;;;;;1.47;1.37;;;23.30;76.80;;;;;;5054337;28;20475;-70
2022/08/01 03:22:56;;;;;;;2.77;1.40;;;23.20;76.70;;;;;;5053187;28;20448;-69
2022/08/01 03:25:23;;;;;;;1.80;1.70;;;23.20;76.50;;;;;;5052283;28;20465;-70
2022/08/01 03:27:55;;;;;;;2.33;1.53;;;23.20;76.30;;;;;;5037944;28;20992;-69
2022/08/01 03:30:26;;;;;;;1.40;1.30;;;23.20;76.60;;;;;;5051599;28;20474;-70
2022/08/01 03:32:52;;;;;;;1.60;1.50;;;23.20;77.00;;;;;;5038055;28;21043;-69
2022/08/01 03:35:18;;;;;;;3.90;2.17;;;23.10;77.20;;;;;;5029375;28;20826;-70
2022/08/01 03:37:44;;;;;;;1.60;1.50;;;23.10;77.30;;;;;;5071793;28;20461;-70
2022/08/01 03:40:17;;;;;;;1.50;1.40;;;23.10;77.00;;;;;;5038378;28;20484;-70
2022/08/01 03:42:50;;;;;;;2.00;1.70;;;23.10;76.70;;;;;;5054122;28;20219;-69
2022/08/01 03:45:27;;;;;;;1.53;1.43;;;23.10;76.50;;;;;;5053448;28;20548;-70
2022/08/01 03:47:59;;;;;;;3.37;1.70;;;23.10;76.80;;;;;;5067335;28;20449;-70
2022/08/01 03:50:26;;;;;;;1.60;1.50;;;23.10;76.40;;;;;;5037377;28;20503;-70
2022/08/01 03:52:56;;;;;;;1.40;1.30;;;23.10;76.80;;;;;;5036984;28;20461;-70
2022/08/01 03:55:24;;;;;;;1.67;1.57;;;23.10;77.60;;;;;;5036470;28;20995;-70
2022/08/01 03:57:51;;;;;;;1.50;1.40;;;23.00;77.80;;;;;;5053442;28;20449;-70
2022/08/01 04:00:18;;;;;;;1.73;1.20;;;22.90;78.30;;;;;;5069356;28;20472;-69
2022/08/01 04:02:48;;;;;;;1.63;1.53;;;22.80;78.50;;;;;;5050208;28;20458;-70
2022/08/01 04:05:18;;;;;;;1.40;1.30;;;22.80;78.30;;;;;;5053393;28;20456;-70
2022/08/01 04:07:55;;;;;;;1.70;1.60;;;22.80;77.90;;;;;;5064341;28;20464;-70
2022/08/01 04:10:22;;;;;;;2.50;1.87;;;22.80;77.70;;;;;;5051831;28;20473;-70
2022/08/01 04:12:48;;;;;;;1.40;1.30;;;22.90;77.80;;;;;;5052655;28;20453;-70
2022/08/01 04:15:14;;;;;;;1.60;1.50;;;22.80;78.20;;;;;;5053561;28;20461;-70
2022/08/01 04:17:40;;;;;;;5.70;1.67;;;22.80;78.30;;;;;;5034915;28;20215;-70
2022/08/01 04:20:06;;;;;;;2.17;1.97;;;22.70;79.00;;;;;;5034382;28;20235;-70
2022/08/01 04:22:32;;;;;;;1.30;1.20;;;22.50;79.80;;;;;;5082508;28;20245;-72
2022/08/01 04:25:02;;;;;;;1.80;1.30;;;22.50;80.00;;;;;;5071131;28;20449;-70
2022/08/01 04:27:37;;;;;;;1.40;1.30;;;22.40;80.40;;;;;;5037995;28;20452;-70
2022/08/01 04:30:04;;;;;;;1.90;1.80;;;22.40;80.40;;;;;;5050320;28;20465;-70
2022/08/01 04:32:35;;;;;;;2.53;1.50;;;22.40;81.40;;;;;;5051827;28;20481;-70
2022/08/01 04:35:05;;;;;;;1.53;1.43;;;22.30;81.00;;;;;;5052887;28;20465;-69
2022/08/01 04:37:31;;;;;;;5.23;1.60;;;22.40;80.60;;;;;;5052932;28;20461;-70
2022/08/01 04:39:59;;;;;;;1.60;1.50;;;22.40;80.20;;;;;;5030379;28;20446;-69
2022/08/01 04:42:25;;;;;;;1.73;1.60;;;22.40;80.50;;;;;;5049889;28;21060;-70
2022/08/01 04:44:50;;;;;;;1.47;1.37;;;22.40;80.20;;;;;;5036089;28;20543;-71
2022/08/01 04:47:17;;;;;;;2.30;1.40;;;22.50;80.40;;;;;;5052655;28;20222;-71
2022/08/01 04:49:45;;;;;;;2.33;1.53;;;22.40;80.20;;;;;;5052092;28;20230;-70
2022/08/01 04:52:11;;;;;;;1.90;1.80;;;22.50;80.00;;;;;;5052882;28;20463;-70
2022/08/01 04:54:37;;;;;;;1.60;1.50;;;22.50;80.00;;;;;;5058187;28;20461;-70
2022/08/01 04:57:06;;;;;;;2.43;2.23;;;22.50;79.80;;;;;;5071110;28;20455;-69
2022/08/01 04:59:41;;;;;;;1.90;1.80;;;22.50;81.20;;;;;;5036692;28;20271;-71
2022/08/01 05:02:12;;;;;;;1.43;1.33;;;22.50;80.80;;;;;;5051090;28;20452;-71
2022/08/01 05:04:39;;;;;;;1.20;1.20;;;22.50;81.30;;;;;;5065702;28;20481;-70
2022/08/01 05:07:05;;;;;;;1.67;1.57;;;22.50;81.30;;;;;;5036531;28;21015;-70
2022/08/01 05:09:31;;;;;;;3.50;1.70;;;22.40;81.50;;;;;;5036040;28;20964;-70
2022/08/01 05:12:01;;;;;;;1.70;1.60;;;22.40;82.30;;;;;;5035187;28;20513;-70
2022/08/01 05:14:28;;;;;;;1.87;1.73;;;22.40;81.90;;;;;;5069260;28;20215;-70
2022/08/01 05:16:54;;;;;;;1.60;1.50;;;22.40;82.50;;;;;;5070066;28;20511;-70
2022/08/01 05:19:21;;;;;;;1.77;1.67;;;22.40;83.10;;;;;;5069603;28;20465;-71
2022/08/01 05:21:47;;;;;;;1.43;1.40;;;22.40;83.30;;;;;;5035177;28;20457;-70
2022/08/01 05:24:12;;;;;;;1.90;1.63;;;22.40;83.00;;;;;;5052629;28;20460;-70
2022/08/01 05:26:39;;;;;;;1.90;1.80;;;22.40;83.80;;;;;;5048622;28;20450;-71
2022/08/01 05:29:06;;;;;;;1.70;1.50;;;22.40;82.50;;;;;;5048112;28;20265;-70
2022/08/01 05:31:35;;;;;;;1.87;1.77;;;22.40;83.20;;;;;;5052935;28;20458;-72
2022/08/01 05:34:02;;;;;;;2.20;1.63;;;22.40;83.20;;;;;;5050723;28;20461;-70
2022/08/01 05:36:28;;;;;;;1.93;1.67;;;22.40;82.20;;;;;;5069885;28;20465;-71
2022/08/01 05:38:54;;;;;;;2.17;1.97;;;22.40;82.60;;;;;;5068928;28;20461;-70
2022/08/01 05:41:20;;;;;;;3.53;2.13;;;22.40;82.10;;;;;;5069005;28;20453;-70
2022/08/01 05:43:46;;;;;;;3.97;3.57;;;22.40;82.20;;;;;;5061839;28;20219;-71
2022/08/01 05:46:12;;;;;;;2.57;2.37;;;22.40;82.30;;;;;;5050067;28;20282;-70
2022/08/01 05:48:38;;;;;;;2.90;2.70;;;22.40;83.00;;;;;;5050676;28;20203;-71
2022/08/01 05:51:04;;;;;;;2.37;2.17;;;22.40;83.30;;;;;;5031785;28;21099;-70
2022/08/01 05:53:29;;;;;;;1.90;1.80;;;22.40;84.30;;;;;;5013989;28;20454;-71
2022/08/01 05:55:55;;;;;;;1.93;1.83;;;22.50;83.70;;;;;;5028042;28;20437;-71
2022/08/01 05:58:22;;;;;;;1.70;1.53;;;22.50;83.60;;;;;;5066890;28;20297;-70
2022/08/01 06:00:48;;;;;;;2.17;1.90;;;22.50;83.70;;;;;;5034695;28;20461;-70
2022/08/01 06:03:14;;;;;;;1.70;1.60;;;22.50;84.00;;;;;;5051399;28;20449;-71
2022/08/01 06:05:40;;;;;;;2.10;1.90;;;22.50;83.80;;;;;;5050805;28;20226;-71
2022/08/01 06:08:06;;;;;;;2.10;1.63;;;22.50;84.20;;;;;;5036249;28;20956;-70
2022/08/01 06:10:31;;;;;;;1.63;1.53;;;22.50;84.80;;;;;;5059102;28;20293;-71
2022/08/01 06:12:57;;;;;;;1.80;1.70;;;22.50;85.20;;;;;;5049995;28;20242;-71
2022/08/01 06:15:23;;;;;;;1.40;1.40;;;22.50;86.30;;;;;;5051369;28;20230;-70
2022/08/01 06:17:49;;;;;;;2.20;1.60;;;22.60;85.70;;;;;;5067068;28;20283;-70
2022/08/01 06:20:15;;;;;;;1.90;1.80;;;22.60;87.10;;;;;;5069472;28;20698;-71
2022/08/01 06:22:40;;;;;;;1.70;1.60;;;22.60;87.70;;;;;;5068848;28;20218;-70
2022/08/01 06:25:07;;;;;;;2.60;1.90;;;22.50;88.80;;;;;;5064638;28;21011;-70
2022/08/01 06:27:36;;;;;;;1.40;1.30;;;22.50;88.80;;;;;;5054525;28;20217;-70
2022/08/01 06:30:02;;;;;;;2.10;1.90;;;22.60;88.20;;;;;;5047994;28;20468;-71
2022/08/01 06:32:29;;;;;;;1.83;1.73;;;22.60;89.00;;;;;;5072820;28;20452;-70
2022/08/01 06:34:55;;;;;;;2.53;1.80;;;22.60;89.40;;;;;;5038569;28;20826;-70
2022/08/01 06:37:21;;;;;;;6.80;2.20;;;22.60;90.00;;;;;;5047270;28;20457;-70
2022/08/01 06:39:47;;;;;;;1.70;1.60;;;22.60;90.00;;;;;;5068341;28;20697;-71
2022/08/01 06:42:14;;;;;;;1.90;1.80;;;22.60;90.20;;;;;;5068888;28;20453;-70
2022/08/01 06:44:40;;;;;;;1.90;1.80;;;22.60;90.20;;;;;;5033966;28;20210;-70
2022/08/01 06:47:06;;;;;;;2.23;2.00;;;22.70;90.20;;;;;;5051784;28;20591;-71
2022/08/01 06:49:31;;;;;;;2.00;1.90;;;22.70;89.60;;;;;;5062052;28;20618;-70
2022/08/01 06:51:57;;;;;;;2.07;1.90;;;22.70;89.00;;;;;;5044923;28;20211;-70
2022/08/01 06:54:23;;;;;;;1.40;1.30;;;22.80;88.90;;;;;;5066204;28;20306;-70
2022/08/01 06:56:49;;;;;;;1.83;1.73;;;22.80;90.10;;;;;;5067728;28;20241;-71
2022/08/01 06:59:14;;;;;;;2.20;2.00;;;22.80;89.70;;;;;;5033912;28;20226;-71
2022/08/01 07:01:40;;;;;;;2.83;2.63;;;22.80;88.80;;;;;;5051650;28;20211;-71
2022/08/01 07:04:06;;;;;;;3.10;2.63;;;22.90;89.40;;;;;;5037796;28;20215;-71
2022/08/01 07:06:32;;;;;;;2.13;2.03;;;22.90;90.10;;;;;;5077635;28;20879;-70
2022/08/01 07:09:00;;;;;;;2.30;2.10;;;22.90;90.40;;;;;;5032603;28;20218;-70
2022/08/01 07:11:25;;;;;;;2.30;1.87;;;22.90;90.50;;;;;;5038673;28;20230;-70
2022/08/01 07:13:51;;;;;;;2.60;2.40;;;23.00;90.00;;;;;;5047453;28;20456;-71
2022/08/01 07:16:17;;;;;;;3.03;2.43;;;23.00;90.00;;;;;;5051263;28;20231;-70
2022/08/01 07:18:43;;;;;;;2.40;2.20;;;23.00;89.80;;;;;;5027551;28;20226;-70
2022/08/01 07:21:09;;;;;;;2.40;2.20;;;23.10;89.10;;;;;;5059835;28;20845;-70
2022/08/01 07:23:35;;;;;;;2.10;2.00;;;23.10;88.90;;;;;;5066978;28;20309;-70
2022/08/01 07:26:02;;;;;;;2.37;2.20;;;23.10;89.80;;;;;;5049464;28;20297;-71
2022/08/01 07:28:29;;;;;;;2.40;2.20;;;23.10;90.20;;;;;;5068838;28;20468;-69
2022/08/01 07:30:54;;;;;;;3.40;2.30;;;23.20;90.30;;;;;;5068044;28;20444;-69
2022/08/01 07:33:20;;;;;;;2.00;1.90;;;23.20;90.30;;;;;;5056575;28;20456;-70
2022/08/01 07:35:46;;;;;;;2.43;2.23;;;23.30;90.40;;;;;;5042849;28;20219;-69
2022/08/01 07:38:11;;;;;;;2.50;2.27;;;23.30;90.10;;;;;;5046832;28;20228;-71
2022/08/01 07:40:37;;;;;;;2.77;2.57;;;23.30;89.70;;;;;;5049851;28;20227;-70
2022/08/01 07:43:03;;;;;;;3.60;2.70;;;23.40;90.00;;;;;;5042148;28;20227;-70
2022/08/01 07:45:30;;;;;;;2.87;2.67;;;23.40;90.00;;;;;;5061602;28;20322;-71
2022/08/01 07:47:55;;;;;;;2.80;2.60;;;23.50;90.00;;;;;;5062326;28;20774;-71
2022/08/01 07:50:21;;;;;;;2.60;2.40;;;23.60;90.20;;;;;;5058359;28;20537;-71
2022/08/01 07:52:47;;;;;;;2.57;2.37;;;23.60;90.30;;;;;;5052613;28;20219;-71
2022/08/01 07:55:12;;;;;;;2.53;2.43;;;23.60;89.90;;;;;;5064662;28;20215;-70
2022/08/01 07:57:38;;;;;;;2.87;2.67;;;23.60;89.50;;;;;;5047393;28;20705;-70
2022/08/01 08:00:08;;;;;;;3.60;2.67;;;23.70;89.40;;;;;;5050711;28;20696;-71
2022/08/01 08:02:34;;;;;;;2.27;2.07;;;23.70;89.50;;;;;;5066890;28;20219;-71
2022/08/01 08:05:00;;;;;;;2.77;2.57;;;23.80;89.40;;;;;;5051977;28;20441;-70
2022/08/01 08:07:25;;;;;;;3.10;2.80;;;23.80;90.20;;;;;;5053483;28;20779;-71
2022/08/01 08:09:51;;;;;;;2.80;2.23;;;23.90;90.40;;;;;;5053254;28;20221;-71
2022/08/01 08:12:17;;;;;;;2.67;2.47;;;24.00;90.10;;;;;;5086620;28;20592;-71
2022/08/01 08:14:43;;;;;;;2.83;2.33;;;24.00;89.70;;;;;;5053279;28;20210;-70
2022/08/01 08:17:08;;;;;;;4.87;2.80;;;24.00;89.90;;;;;;5053592;28;20714;-70
2022/08/01 08:19:36;;;;;;;4.67;2.20;;;24.10;89.60;;;;;;5037511;28;20608;-69
2022/08/01 08:22:02;;;;;;;3.30;3.00;;;24.10;89.70;;;;;;5053519;28;20223;-69
2022/08/01 08:24:28;;;;;;;2.30;2.20;;;24.10;89.80;;;;;;5047124;28;20448;-71
2022/08/01 08:26:57;;;;;;;2.70;2.50;;;24.20;90.00;;;;;;5053571;28;20210;-71
2022/08/01 08:29:24;;;;;;;3.27;2.97;;;24.20;90.00;;;;;;5039235;28;20219;-71
2022/08/01 08:31:51;;;;;;;2.77;2.57;;;24.20;89.70;;;;;;5033280;28;20515;-71
2022/08/01 08:34:17;;;;;;;2.70;2.50;;;24.30;89.90;;;;;;5052681;28;20495;-71
2022/08/01 08:36:43;;;;;;;3.00;2.80;;;24.30;89.90;;;;;;5036922;28;20446;-71
2022/08/01 08:39:08;;;;;;;2.90;2.70;;;24.30;90.00;;;;;;5057000;28;20796;-71
2022/08/01 08:41:35;;;;;;;4.60;2.60;;;24.30;89.90;;;;;;5052648;28;20210;-71
2022/08/01 08:44:03;;;;;;;3.57;2.17;;;24.40;89.90;;;;;;5047980;28;20226;-70
2022/08/01 08:46:32;;;;;;;3.10;2.20;;;24.50;89.80;;;;;;5041522;28;20846;-71
2022/08/01 08:48:59;;;;;;;2.50;2.30;;;24.50;89.30;;;;;;5049238;28;20460;-71
2022/08/01 08:51:27;;;;;;;2.90;2.43;;;24.50;89.30;;;;;;5051725;28;20850;-71
2022/08/01 08:53:57;;;;;;;2.40;2.30;;;24.60;89.40;;;;;;5065767;28;20965;-71
2022/08/01 08:56:25;;;;;;;2.73;2.43;;;24.60;89.20;;;;;;5045693;28;20464;-70
2022/08/01 08:58:51;;;;;;;1.80;1.70;;;24.70;89.20;;;;;;5048962;28;20821;-71
2022/08/01 09:01:17;;;;;;;2.10;2.00;;;24.80;90.00;;;;;;5043975;28;21015;-71
2022/08/01 09:03:44;;;;;;;2.10;2.00;;;24.90;90.00;;;;;;5065907;28;20455;-71
2022/08/01 09:06:11;;;;;;;2.13;2.03;;;25.00;89.60;;;;;;5030542;28;20453;-71
2022/08/01 09:08:37;;;;;;;1.97;1.87;;;25.10;89.10;;;;;;5069832;28;20536;-71
2022/08/01 09:11:03;;;;;;;2.33;2.00;;;25.10;89.30;;;;;;5052829;28;20471;-71
2022/08/01 09:13:29;;;;;;;2.53;2.33;;;25.30;89.40;;;;;;5034906;28;20528;-70
2022/08/01 09:15:59;;;;;;;1.60;1.50;;;25.30;88.20;;;;;;5066566;28;20445;-71
2022/08/01 09:18:28;;;;;;;3.40;2.30;;;25.30;87.60;;;;;;5053531;28;20455;-70
2022/08/01 09:21:06;;;;;;;2.57;2.10;;;25.40;87.80;;;;;;5032975;28;20464;-70
2022/08/01 09:23:38;;;;;;;2.50;2.30;;;25.50;87.40;;;;;;5035177;28;20451;-71
2022/08/01 09:26:04;;;;;;;2.60;2.40;;;25.50;87.30;;;;;;5052068;28;20471;-70
2022/08/01 09:28:30;;;;;;;3.47;2.60;;;25.60;86.80;;;;;;5050821;28;20643;-71
2022/08/01 09:30:57;;;;;;;2.50;2.30;;;25.60;86.90;;;;;;5038013;28;20531;-70
2022/08/01 09:33:23;;;;;;;2.57;2.37;;;25.70;87.10;;;;;;5071003;28;20706;-71
2022/08/01 09:35:56;;;;;;;4.30;2.80;;;25.80;86.80;;;;;;5032247;28;20481;-70
2022/08/01 09:38:26;;;;;;;4.77;2.60;;;25.80;86.60;;;;;;5067557;28;20231;-71
2022/08/01 09:40:53;;;;;;;2.43;2.23;;;26.00;86.50;;;;;;5050378;28;20459;-71
2022/08/01 09:43:20;;;;;;;3.03;2.80;;;26.00;86.60;;;;;;5037204;28;20455;-71
2022/08/01 09:45:47;;;;;;;2.87;2.67;;;26.20;85.50;;;;;;5047740;28;20483;-70
2022/08/01 09:48:13;;;;;;;2.20;2.00;;;26.30;86.00;;;;;;5052067;28;20453;-71
2022/08/01 09:50:43;;;;;;;2.40;2.20;;;26.50;85.90;;;;;;5032286;28;20450;-71
2022/08/01 09:53:13;;;;;;;2.70;2.50;;;26.60;85.00;;;;;;5050612;28;20229;-71
2022/08/01 09:55:39;;;;;;;2.90;2.60;;;26.70;84.80;;;;;;5044189;28;20443;-71
2022/08/01 09:58:06;;;;;;;3.60;2.53;;;26.80;84.30;;;;;;5049626;28;20560;-71
2022/08/01 10:00:33;;;;;;;2.77;2.53;;;26.90;83.20;;;;;;5066498;28;20478;-71
2022/08/01 10:02:59;;;;;;;3.07;2.87;;;27.00;82.70;;;;;;5050451;28;20476;-71
2022/08/01 10:05:33;;;;;;;3.00;2.63;;;26.90;81.40;;;;;;5051168;28;20447;-71
2022/08/01 10:08:02;;;;;;;4.80;2.90;;;27.00;82.70;;;;;;5035031;28;20442;-71
2022/08/01 10:10:28;;;;;;;2.83;2.63;;;27.10;82.30;;;;;;5051149;28;20458;-71
2022/08/01 10:12:57;;;;;;;3.20;3.00;;;27.20;80.60;;;;;;5049877;28;20481;-71
2022/08/01 10:15:24;;;;;;;2.50;2.30;;;27.30;81.40;;;;;;5049388;28;20234;-70
2022/08/01 10:18:00;;;;;;;2.47;2.27;;;27.30;81.10;;;;;;5063102;28;20356;-71
2022/08/01 10:20:28;;;;;;;4.40;2.90;;;27.40;81.50;;;;;;5035301;28;20513;-70
2022/08/01 10:22:57;;;;;;;2.75;2.55;;;27.50;80.00;;;;;;5049873;28;21019;-71
2022/08/01 10:25:27;;;;;;;3.10;2.50;;;27.70;80.20;;;;;;5049514;28;20228;-71
2022/08/01 10:27:56;;;;;;;2.67;2.47;;;27.80;79.20;;;;;;5042014;28;20225;-71
2022/08/01 10:30:22;;;;;;;3.05;2.85;;;28.00;78.40;;;;;;5034538;28;20262;-71
2022/08/01 10:32:49;;;;;;;3.58;2.60;;;28.00;79.00;;;;;;5053244;28;20223;-71
2022/08/01 10:35:17;;;;;;;3.05;2.65;;;28.00;78.60;;;;;;5050099;28;20337;-71
2022/08/01 10:37:46;;;;;;;4.38;2.75;;;28.20;79.00;;;;;;5066728;28;20215;-71
2022/08/01 10:40:13;;;;;;;3.17;2.88;;;28.40;78.50;;;;;;5046030;28;20231;-70
2022/08/01 10:42:43;;;;;;;3.25;3.00;;;28.40;76.70;;;;;;5049310;28;20221;-71
2022/08/01 10:45:13;;;;;;;3.15;2.90;;;28.30;76.80;;;;;;5051163;28;20234;-71
2022/08/01 10:47:52;;;;;;;3.17;2.92;;;28.30;77.30;;;;;;5043281;28;20215;-71
2022/08/01 10:50:18;;;;;;;2.88;2.58;;;28.40;75.70;;;;;;5049652;28;20225;-71
2022/08/01 10:53:07;;;;;;;2.78;2.58;;;28.50;75.70;;;;;;5047587;28;20253;-70
2022/08/01 10:55:51;;;;;;;3.03;2.78;;;28.50;75.70;;;;;;5068300;28;20224;-71
2022/08/01 10:58:24;;;;;;;2.95;2.75;;;28.60;75.50;;;;;;5012358;28;20227;-71
2022/08/01 11:01:13;;;;;;;4.22;3.88;;;28.60;75.50;;;;;;5061971;28;20227;-71
2022/08/01 11:03:38;;;;;;;2.90;2.70;;;28.80;75.30;;;;;;5038419;28;20227;-70
2022/08/01 11:06:04;;;;;;;3.25;2.80;;;28.90;75.10;;;;;;5030691;28;20241;-71
2022/08/01 11:08:32;;;;;;;2.97;2.78;;;28.90;75.00;;;;;;5068337;28;20238;-71
2022/08/01 11:11:02;;;;;;;2.88;2.67;;;29.00;73.60;;;;;;5041675;28;20247;-70
2022/08/01 11:14:00;;;;;;;2.97;2.75;;;29.00;73.60;;;;;;5049966;28;20353;-72
2022/08/01 11:16:30;;;;;;;2.70;2.50;;;29.10;73.90;;;;;;5068816;28;20242;-71
2022/08/01 11:18:56;;;;;;;2.72;2.53;;;29.20;72.90;;;;;;5069124;28;20244;-71
2022/08/01 11:21:26;;;;;;;2.67;2.42;;;29.40;72.90;;;;;;5049070;28;20323;-70
2022/08/01 11:23:53;;;;;;;2.13;2.00;;;29.30;73.10;;;;;;5044601;28;20288;-70
2022/08/01 11:26:19;;;;;;;2.55;2.35;;;29.50;72.10;;;;;;5047026;28;20320;-70
2022/08/01 11:29:07;;;;;;;3.00;2.80;;;29.80;71.80;;;;;;5053783;28;20241;-71
2022/08/01 11:31:34;;;;;;;2.45;2.35;;;30.00;71.60;;;;;;5072396;28;20236;-70
2022/08/01 11:34:00;;;;;;;2.33;2.22;;;30.00;71.40;;;;;;5050553;28;20232;-72
2022/08/01 11:36:27;;;;;;;2.42;2.22;;;30.10;70.90;;;;;;5045181;28;20239;-69
2022/08/01 11:39:04;;;;;;;2.60;2.40;;;30.10;70.70;;;;;;5035147;28;20243;-69
2022/08/01 11:41:33;;;;;;;2.58;2.38;;;30.20;70.70;;;;;;5053594;28;20230;-69
2022/08/01 11:44:06;;;;;;;2.47;2.28;;;30.20;70.80;;;;;;5057282;28;20671;-69
2022/08/01 11:46:51;;;;;;;2.85;2.65;;;30.10;69.40;;;;;;5036662;28;20222;-69
2022/08/01 11:49:25;;;;;;;2.95;2.75;;;30.10;69.60;;;;;;5052236;28;20759;-69
2022/08/01 11:52:06;;;;;;;3.33;2.08;;;30.20;70.40;;;;;;5052911;28;20224;-69
2022/08/01 11:54:40;;;;;;;2.10;2.00;;;30.40;69.50;;;;;;5066856;28;20214;-68
2022/08/01 11:57:08;;;;;;;2.00;1.90;;;30.60;68.80;;;;;;5061397;28;20255;-69
2022/08/01 11:59:47;;;;;;;2.10;2.00;;;30.70;68.10;;;;;;5053264;28;20335;-69
2022/08/01 12:02:23;;;;;;;2.72;2.40;;;30.70;68.00;;;;;;5053069;28;20240;-69
2022/08/01 12:04:57;;;;;;;2.33;1.90;;;30.70;67.40;;;;;;5052116;28;20229;-69
2022/08/01 12:07:25;;;;;;;2.25;2.05;;;30.80;66.90;;;;;;5051977;28;20274;-69
2022/08/01 12:10:05;;;;;;;2.38;2.25;;;31.00;64.90;;;;;;5059507;28;20601;-68
2022/08/01 12:12:33;;;;;;;2.05;1.95;;;31.10;65.60;;;;;;5031480;28;20233;-69
2022/08/01 12:15:02;;;;;;;2.20;2.10;;;31.10;65.00;;;;;;5042983;28;20327;-68
2022/08/01 12:17:50;;;;;;;2.15;2.03;;;31.20;63.30;;;;;;5045385;28;20264;-69
2022/08/01 12:20:20;;;;;;;2.15;1.98;;;31.30;63.10;;;;;;5050949;28;20239;-69
2022/08/01 12:22:46;;;;;;;2.40;2.30;;;31.30;62.20;;;;;;5054353;28;20229;-67
2022/08/01 12:25:17;;;;;;;1.80;1.70;;;31.40;62.80;;;;;;5047564;28;20244;-68
2022/08/01 12:27:45;;;;;;;2.42;2.17;;;31.40;62.20;;;;;;5050857;28;20210;-68
2022/08/01 12:30:13;;;;;;;1.70;1.60;;;31.50;62.20;;;;;;5067254;28;20229;-67
2022/08/01 12:32:41;;;;;;;2.00;1.90;;;31.50;62.70;;;;;;5051215;28;20306;-68
2022/08/01 12:35:07;;;;;;;1.83;1.73;;;31.50;62.80;;;;;;5045229;28;20290;-67
2022/08/01 12:37:43;;;;;;;1.88;1.77;;;31.60;62.60;;;;;;5034759;28;20219;-68
2022/08/01 12:40:14;;;;;;;1.83;1.73;;;31.70;63.40;;;;;;5070352;28;20238;-68
2022/08/01 12:42:41;;;;;;;1.70;1.60;;;31.80;62.30;;;;;;5050922;28;20806;-69
2022/08/01 12:45:09;;;;;;;2.10;2.00;;;31.80;62.70;;;;;;5067287;28;20218;-69
2022/08/01 12:47:38;;;;;;;1.88;1.77;;;31.90;61.20;;;;;;5064974;28;20219;-69
2022/08/01 12:50:11;;;;;;;2.08;1.65;;;31.90;61.70;;;;;;5037933;28;20246;-68
2022/08/01 12:52:37;;;;;;;2.08;1.98;;;31.90;62.10;;;;;;5049168;28;20253;-69
2022/08/01 12:55:08;;;;;;;2.30;2.10;;;31.90;62.10;;;;;;5039415;28;20233;-69